createdAt,value
2018-08-16T00:01:26.458Z,10.60
2018-08-16T00:03:54.610Z,10.23
2018-08-16T00:06:22.934Z,9.30
2018-08-16T00:08:51.080Z,8.90
2018-08-16T00:11:19.229Z,10.27
2018-08-16T00:13:47.386Z,9.90
2018-08-16T00:16:15.537Z,10.03
2018-08-16T00:18:43.685Z,9.70
2018-08-16T00:21:11.833Z,9.70
2018-08-16T00:23:39.998Z,11.07
2018-08-16T00:26:08.142Z,10.17
2018-08-16T00:28:36.310Z,9.67
2018-08-16T00:31:04.484Z,9.70
2018-08-16T00:33:32.658Z,8.53
2018-08-16T00:36:00.798Z,9.70
2018-08-16T00:38:28.950Z,9.47
2018-08-16T00:40:57.207Z,10.37
2018-08-16T00:43:25.370Z,10.00
2018-08-16T00:45:53.625Z,9.50
2018-08-16T00:48:21.765Z,9.93
2018-08-16T00:50:49.886Z,9.50
2018-08-16T00:53:18.007Z,9.80
2018-08-16T00:55:46.126Z,9.00
2018-08-16T00:58:14.307Z,9.60
2018-08-16T01:00:42.446Z,9.67
2018-08-16T01:03:10.577Z,9.63
2018-08-16T01:05:38.790Z,9.47
2018-08-16T01:08:06.946Z,8.67
2018-08-16T01:10:35.082Z,9.10
2018-08-16T01:13:03.241Z,9.33
2018-08-16T01:15:31.391Z,10.20
2018-08-16T01:17:59.573Z,9.60
2018-08-16T01:20:27.727Z,9.60
2018-08-16T01:22:55.889Z,9.77
2018-08-16T01:25:26.328Z,10.27
2018-08-16T01:27:54.503Z,9.30
2018-08-16T01:30:22.816Z,9.63
2018-08-16T01:32:50.965Z,9.80
2018-08-16T01:35:19.120Z,9.63
2018-08-16T01:37:47.278Z,10.17
2018-08-16T01:40:15.418Z,9.57
2018-08-16T01:42:43.578Z,9.53
2018-08-16T01:45:11.722Z,9.37
2018-08-16T01:47:39.897Z,10.03
2018-08-16T01:50:08.397Z,9.20
2018-08-16T01:52:36.549Z,9.93
2018-08-16T01:55:05.333Z,9.53
2018-08-16T01:57:33.502Z,9.50
2018-08-16T02:00:01.647Z,9.63
2018-08-16T02:02:29.826Z,9.60
2018-08-16T02:04:57.985Z,9.00
2018-08-16T02:07:26.134Z,9.40
2018-08-16T02:09:54.379Z,9.60
2018-08-16T02:12:22.523Z,10.23
2018-08-16T02:14:50.678Z,9.73
2018-08-16T02:17:18.845Z,9.70
2018-08-16T02:19:47.030Z,9.53
2018-08-16T02:22:15.183Z,9.50
2018-08-16T02:24:43.342Z,9.90
2018-08-16T02:27:11.483Z,9.50
2018-08-16T02:29:39.637Z,9.70
2018-08-16T02:32:07.799Z,10.30
2018-08-16T02:34:35.998Z,10.40
2018-08-16T02:37:04.155Z,10.50
2018-08-16T02:39:32.307Z,8.70
2018-08-16T02:42:00.662Z,10.67
2018-08-16T02:44:28.813Z,9.60
2018-08-16T02:46:56.965Z,11.13
2018-08-16T02:49:25.166Z,10.30
2018-08-16T02:51:53.337Z,10.03
2018-08-16T02:54:21.518Z,10.63
2018-08-16T02:56:49.689Z,9.53
2018-08-16T02:59:17.863Z,9.97
2018-08-16T03:01:46.037Z,10.13
2018-08-16T03:04:14.202Z,9.50
2018-08-16T03:06:42.398Z,10.57
2018-08-16T03:09:11.227Z,10.17
2018-08-16T03:11:39.425Z,10.10
2018-08-16T03:14:07.679Z,9.10
2018-08-16T03:16:35.837Z,9.50
2018-08-16T03:19:04.058Z,9.83
2018-08-16T03:21:32.213Z,9.80
2018-08-16T03:24:00.389Z,9.60
2018-08-16T03:26:28.563Z,9.93
2018-08-16T03:28:56.723Z,9.80
2018-08-16T03:31:24.898Z,9.67
2018-08-16T03:33:53.534Z,9.40
2018-08-16T03:36:21.707Z,9.57
2018-08-16T03:38:49.878Z,9.50
2018-08-16T03:41:18.043Z,9.40
2018-08-16T03:43:46.219Z,10.00
2018-08-16T03:46:14.382Z,9.30
2018-08-16T03:48:42.586Z,10.20
2018-08-16T03:51:10.773Z,10.50
2018-08-16T03:53:38.938Z,10.30
2018-08-16T03:56:07.216Z,9.50
2018-08-16T03:58:35.389Z,10.30
2018-08-16T04:01:03.570Z,9.97
2018-08-16T04:03:31.738Z,9.93
2018-08-16T04:05:59.964Z,9.80
2018-08-16T04:08:28.150Z,10.33
2018-08-16T04:10:56.366Z,10.20
2018-08-16T04:13:24.553Z,9.37
2018-08-16T04:15:52.746Z,9.93
2018-08-16T04:18:20.918Z,10.10
2018-08-16T04:20:49.094Z,9.67
2018-08-16T04:23:17.258Z,9.40
2018-08-16T04:25:45.450Z,9.00
2018-08-16T04:28:13.618Z,9.70
2018-08-16T04:30:41.806Z,10.53
2018-08-16T04:33:09.959Z,9.10
2018-08-16T04:35:38.138Z,10.07
2018-08-16T04:38:06.754Z,9.63
2018-08-16T04:40:36.518Z,10.17
2018-08-16T04:43:04.702Z,9.50
2018-08-16T04:45:32.874Z,9.70
2018-08-16T04:48:01.049Z,10.23
2018-08-16T04:50:29.218Z,10.53
2018-08-16T04:52:57.398Z,10.20
2018-08-16T04:55:25.599Z,9.87
2018-08-16T04:57:53.778Z,11.20
2018-08-16T05:00:21.958Z,10.60
2018-08-16T05:02:50.163Z,10.53
2018-08-16T05:05:18.322Z,10.40
2018-08-16T05:07:46.504Z,10.57
2018-08-16T05:10:14.674Z,10.20
2018-08-16T05:12:42.866Z,10.53
2018-08-16T05:15:12.574Z,10.07
2018-08-16T05:17:40.795Z,11.60
2018-08-16T05:20:11.181Z,11.40
2018-08-16T05:22:39.374Z,10.87
2018-08-16T05:25:07.688Z,11.13
2018-08-16T05:27:36.055Z,10.97
2018-08-16T05:30:09.122Z,11.37
2018-08-16T05:32:37.298Z,10.83
2018-08-16T05:35:05.572Z,10.57
2018-08-16T05:37:34.106Z,10.00
2018-08-16T05:40:02.290Z,10.20
2018-08-16T05:42:30.475Z,10.33
2018-08-16T05:44:58.650Z,10.80
2018-08-16T05:47:26.837Z,11.17
2018-08-16T05:49:55.029Z,11.50
2018-08-16T05:52:23.202Z,11.10
2018-08-16T05:54:51.449Z,10.83
2018-08-16T05:57:19.602Z,11.90
2018-08-16T05:59:47.774Z,10.83
2018-08-16T06:02:15.956Z,11.20
2018-08-16T06:04:44.109Z,10.67
2018-08-16T06:07:12.266Z,11.60
2018-08-16T06:09:40.438Z,11.83
2018-08-16T06:12:08.608Z,12.17
2018-08-16T06:14:36.773Z,11.50
2018-08-16T06:17:04.917Z,11.87
2018-08-16T06:19:33.098Z,12.20
2018-08-16T06:22:01.255Z,11.90
2018-08-16T06:24:29.425Z,12.50
2018-08-16T06:26:57.582Z,11.87
2018-08-16T06:29:25.740Z,12.27
2018-08-16T06:31:53.898Z,12.80
2018-08-16T06:34:22.068Z,12.17
2018-08-16T06:36:50.241Z,12.80
2018-08-16T06:39:18.435Z,12.90
2018-08-16T06:41:46.607Z,12.03
2018-08-16T06:44:14.761Z,11.93
2018-08-16T06:46:42.916Z,12.77
2018-08-16T06:49:11.122Z,12.23
2018-08-16T06:51:39.287Z,13.20
2018-08-16T06:54:07.482Z,12.57
2018-08-16T06:56:35.641Z,11.73
2018-08-16T06:59:03.847Z,11.70
2018-08-16T07:01:32.002Z,11.67
2018-08-16T07:04:00.290Z,12.90
2018-08-16T07:06:28.443Z,12.73
2018-08-16T07:08:56.625Z,10.90
2018-08-16T07:11:24.782Z,11.33
2018-08-16T07:13:52.954Z,11.20
2018-08-16T07:16:21.107Z,11.53
2018-08-16T07:18:49.334Z,11.50
2018-08-16T07:21:17.430Z,11.17
2018-08-16T07:23:45.587Z,11.90
2018-08-16T07:26:13.761Z,11.27
2018-08-16T07:28:41.926Z,11.60
2018-08-16T07:31:10.099Z,12.07
2018-08-16T07:33:38.358Z,10.60
2018-08-16T07:36:06.522Z,11.20
2018-08-16T07:38:34.702Z,12.30
2018-08-16T07:41:03.062Z,11.10
2018-08-16T07:43:31.234Z,10.80
2018-08-16T07:45:59.444Z,10.87
2018-08-16T07:48:27.586Z,10.60
2018-08-16T07:50:55.786Z,11.10
2018-08-16T07:53:23.981Z,11.00
2018-08-16T07:55:52.163Z,9.80
2018-08-16T07:58:20.372Z,10.77
2018-08-16T08:00:48.523Z,11.30
2018-08-16T08:03:16.714Z,10.17
2018-08-16T08:05:44.895Z,9.17
2018-08-16T08:08:13.078Z,9.83
2018-08-16T08:10:41.326Z,10.87
2018-08-16T08:13:09.514Z,11.83
2018-08-16T08:15:37.700Z,10.30
2018-08-16T08:18:06.221Z,10.83
2018-08-16T08:20:34.406Z,10.43
2018-08-16T08:23:02.567Z,9.10
2018-08-16T08:25:30.849Z,9.43
2018-08-16T08:27:58.930Z,9.40
2018-08-16T08:30:27.121Z,9.70
2018-08-16T08:32:55.281Z,10.07
2018-08-16T08:35:23.494Z,9.77
2018-08-16T08:38:00.980Z,10.20
2018-08-16T08:40:29.162Z,10.93
2018-08-16T08:42:57.332Z,9.90
2018-08-16T08:45:25.528Z,9.03
2018-08-16T08:47:55.638Z,9.47
2018-08-16T08:50:24.085Z,9.33
2018-08-16T08:52:52.326Z,9.77
2018-08-16T08:55:31.886Z,9.97
2018-08-16T08:58:11.558Z,11.07
2018-08-16T09:00:39.718Z,10.23
2018-08-16T09:03:07.933Z,10.60
2018-08-16T09:05:36.473Z,11.73
2018-08-16T09:08:05.187Z,13.10
2018-08-16T09:10:53.954Z,11.20
2018-08-16T09:13:34.598Z,10.43
2018-08-16T09:16:04.715Z,12.80
2018-08-16T09:18:34.122Z,10.77
2018-08-16T09:21:02.310Z,12.10
2018-08-16T09:23:30.484Z,13.90
2018-08-16T09:25:58.684Z,13.40
2018-08-16T09:28:26.858Z,12.70
2018-08-16T09:31:06.519Z,13.03
2018-08-16T09:34:41.222Z,11.63
2018-08-16T09:37:09.402Z,11.10
2018-08-16T09:39:37.669Z,11.37
2018-08-16T09:42:05.796Z,12.70
2018-08-16T09:44:33.985Z,13.60
2018-08-16T09:47:14.045Z,13.03
2018-08-16T09:49:45.670Z,13.53
2018-08-16T09:52:14.502Z,13.67
2018-08-16T09:54:42.667Z,12.30
2018-08-16T09:57:11.774Z,12.83
2018-08-16T09:59:39.977Z,12.23
2018-08-16T10:02:09.805Z,11.43
2018-08-16T10:04:38.140Z,11.33
2018-08-16T10:07:06.318Z,13.60
2018-08-16T10:09:34.481Z,13.60
2018-08-16T10:12:03.292Z,14.27
2018-08-16T10:14:31.578Z,14.10
2018-08-16T10:16:59.853Z,12.53
2018-08-16T10:19:28.538Z,12.60
2018-08-16T10:21:56.731Z,11.90
2018-08-16T10:24:24.907Z,11.80
2018-08-16T10:26:53.072Z,12.20
2018-08-16T10:29:21.225Z,11.77
2018-08-16T10:31:49.404Z,12.40
2018-08-16T10:34:18.106Z,12.00
2018-08-16T10:36:46.271Z,12.57
2018-08-16T10:39:15.808Z,12.47
2018-08-16T10:41:43.986Z,11.13
2018-08-16T10:44:12.684Z,11.10
2018-08-16T10:46:40.830Z,11.93
2018-08-16T10:49:09.134Z,11.40
2018-08-16T10:51:37.341Z,10.87
2018-08-16T10:54:05.562Z,11.30
2018-08-16T10:56:33.786Z,11.05
2018-08-16T10:59:02.005Z,10.90
2018-08-16T11:01:30.270Z,10.40
2018-08-16T11:03:58.374Z,9.33
2018-08-16T11:06:26.573Z,10.07
2018-08-16T11:08:54.864Z,9.40
2018-08-16T11:11:22.988Z,9.57
2018-08-16T11:13:51.161Z,10.20
2018-08-16T11:16:19.386Z,9.80
2018-08-16T11:18:47.629Z,9.30
2018-08-16T11:21:15.784Z,9.43
2018-08-16T11:23:43.942Z,8.67
2018-08-16T11:26:12.117Z,11.70
2018-08-16T11:28:40.298Z,9.97
2018-08-16T11:31:08.458Z,9.27
2018-08-16T11:33:36.637Z,10.20
2018-08-16T11:36:04.806Z,10.77
2018-08-16T11:38:32.999Z,10.10
2018-08-16T11:41:01.166Z,9.40
2018-08-16T11:43:29.345Z,9.90
2018-08-16T11:45:57.521Z,9.27
2018-08-16T11:48:25.713Z,7.73
2018-08-16T11:50:53.862Z,9.20
2018-08-16T11:53:23.378Z,10.17
2018-08-16T11:55:51.540Z,9.40
2018-08-16T11:58:19.692Z,9.57
2018-08-16T12:00:47.845Z,9.33
2018-08-16T12:03:16.003Z,9.53
2018-08-16T12:05:44.157Z,9.70
2018-08-16T12:08:12.322Z,8.90
2018-08-16T12:10:40.638Z,9.87
2018-08-16T12:13:08.917Z,9.27
2018-08-16T12:15:37.090Z,9.67
2018-08-16T12:18:05.493Z,9.00
2018-08-16T12:20:33.648Z,8.60
2018-08-16T12:23:01.786Z,8.63
2018-08-16T12:25:29.957Z,9.17
2018-08-16T12:27:58.108Z,9.60
2018-08-16T12:30:26.269Z,10.13
2018-08-16T12:32:54.427Z,9.97
2018-08-16T12:35:22.654Z,9.80
2018-08-16T12:37:50.864Z,9.97
2018-08-16T12:40:18.977Z,9.47
2018-08-16T12:42:47.131Z,9.60
2018-08-16T12:45:15.346Z,9.47
2018-08-16T12:47:43.580Z,10.93
2018-08-16T12:50:11.728Z,9.80
2018-08-16T12:52:40.298Z,9.30
2018-08-16T12:55:08.583Z,9.13
2018-08-16T12:57:37.242Z,9.30
2018-08-16T13:00:08.482Z,9.63
2018-08-16T13:02:36.675Z,9.93
2018-08-16T13:05:06.422Z,9.40
2018-08-16T13:07:34.858Z,9.37
2018-08-16T13:10:03.750Z,9.60
2018-08-16T13:12:31.956Z,9.87
2018-08-16T13:15:00.211Z,9.53
2018-08-16T13:17:28.314Z,10.17
2018-08-16T13:19:56.503Z,9.47
2018-08-16T13:22:24.742Z,9.90
2018-08-16T13:24:52.930Z,10.10
2018-08-16T13:27:21.111Z,10.43
2018-08-16T13:29:49.314Z,9.60
2018-08-16T13:32:18.024Z,9.50
2018-08-16T13:34:46.235Z,10.40
2018-08-16T13:37:15.169Z,10.43
2018-08-16T13:39:43.309Z,11.50
2018-08-16T13:42:11.551Z,11.53
2018-08-16T13:44:39.742Z,10.77
2018-08-16T13:47:07.944Z,10.77
2018-08-16T13:49:36.143Z,10.67
2018-08-16T13:52:04.926Z,9.27
2018-08-16T13:54:33.094Z,10.30
2018-08-16T13:57:01.398Z,9.67
2018-08-16T13:59:29.567Z,10.30
2018-08-16T14:01:57.757Z,12.00
2018-08-16T14:04:25.930Z,11.40
2018-08-16T14:06:54.118Z,10.17
2018-08-16T14:09:22.303Z,11.87
2018-08-16T14:11:50.482Z,10.30
2018-08-16T14:14:18.675Z,10.97
2018-08-16T14:16:46.870Z,11.90
2018-08-16T14:19:15.071Z,11.00
2018-08-16T14:21:43.319Z,11.37
2018-08-16T14:24:11.578Z,11.70
2018-08-16T14:26:39.825Z,11.13
2018-08-16T14:29:07.994Z,12.10
2018-08-16T14:31:36.270Z,11.50
2018-08-16T14:34:04.465Z,10.90
2018-08-16T14:36:32.670Z,13.47
2018-08-16T14:39:00.839Z,11.20
2018-08-16T14:41:29.067Z,10.60
2018-08-16T14:43:57.255Z,11.10
2018-08-16T14:46:25.418Z,11.63
2018-08-16T14:48:53.587Z,11.57
2018-08-16T14:51:21.785Z,12.10
2018-08-16T14:53:49.951Z,11.70
2018-08-16T14:56:18.124Z,11.50
2018-08-16T14:58:46.302Z,12.40
2018-08-16T15:01:14.463Z,12.20
2018-08-16T15:03:42.611Z,12.00
2018-08-16T15:06:10.793Z,11.30
2018-08-16T15:08:38.933Z,11.33
2018-08-16T15:11:07.114Z,12.63
2018-08-16T15:13:35.303Z,11.70
2018-08-16T15:16:03.458Z,11.80
2018-08-16T15:18:31.649Z,11.73
2018-08-16T15:20:59.884Z,13.13
2018-08-16T15:23:28.080Z,11.73
2018-08-16T15:25:56.255Z,10.63
2018-08-16T15:28:24.414Z,11.60
2018-08-16T15:30:52.589Z,12.07
2018-08-16T15:33:20.744Z,10.97
2018-08-16T15:35:48.926Z,11.10
2018-08-16T15:38:17.106Z,12.00
2018-08-16T15:40:45.293Z,11.40
2018-08-16T15:43:13.468Z,11.10
2018-08-16T15:45:41.648Z,11.80
2018-08-16T15:48:14.832Z,11.20
2018-08-16T15:50:44.119Z,12.33
2018-08-16T15:53:18.798Z,12.20
2018-08-16T15:55:46.968Z,11.53
2018-08-16T15:58:15.354Z,10.50
2018-08-16T16:00:43.530Z,12.63
2018-08-16T16:03:11.720Z,11.03
2018-08-16T16:05:39.964Z,10.50
2018-08-16T16:08:08.159Z,11.10
2018-08-16T16:10:36.335Z,10.77
2018-08-16T16:15:56.394Z,11.57
2018-08-16T16:18:24.545Z,11.63
2018-08-16T16:23:43.400Z,11.10
2018-08-16T16:26:11.590Z,10.63
2018-08-16T16:31:20.964Z,10.10
2018-08-16T16:33:49.154Z,10.23
2018-08-16T16:36:17.338Z,9.93
2018-08-16T16:38:45.552Z,11.43
2018-08-16T16:41:13.770Z,10.00
2018-08-16T16:43:41.998Z,9.80
2018-08-16T16:46:10.270Z,10.37
2018-08-16T16:48:38.491Z,10.30
2018-08-16T16:51:06.803Z,10.50
2018-08-16T16:53:34.981Z,9.47
2018-08-16T16:56:03.178Z,10.13
2018-08-16T16:58:31.368Z,11.13
2018-08-16T17:00:59.546Z,10.63
2018-08-16T17:03:27.730Z,9.83
2018-08-16T17:05:55.915Z,10.20
2018-08-16T17:08:24.141Z,9.20
2018-08-16T17:10:52.310Z,9.70
2018-08-16T17:13:20.506Z,10.37
2018-08-16T17:15:48.691Z,10.03
2018-08-16T17:18:16.890Z,10.23
2018-08-16T17:20:45.074Z,9.33
2018-08-16T17:23:13.273Z,9.93
2018-08-16T17:25:41.465Z,9.40
2018-08-16T17:28:09.668Z,10.20
2018-08-16T17:30:37.850Z,9.23
2018-08-16T17:33:06.236Z,10.37
2018-08-16T17:35:34.445Z,8.90
2018-08-16T17:38:02.623Z,9.90
2018-08-16T17:40:30.785Z,9.77
2018-08-16T17:42:58.974Z,10.13
2018-08-16T17:45:27.145Z,9.23
2018-08-16T17:47:55.343Z,9.00
2018-08-16T17:50:23.618Z,9.50
2018-08-16T17:52:51.823Z,9.10
2018-08-16T17:55:20.005Z,9.07
2018-08-16T17:57:48.182Z,9.00
2018-08-16T18:00:16.394Z,9.60
2018-08-16T18:02:44.569Z,9.00
2018-08-16T18:05:12.741Z,8.63
2018-08-16T18:07:40.930Z,8.67
2018-08-16T18:10:09.626Z,9.33
2018-08-16T18:12:37.866Z,9.73
2018-08-16T18:15:08.654Z,9.33
2018-08-16T18:17:38.455Z,8.93
2018-08-16T18:20:07.145Z,9.90
2018-08-16T18:22:35.822Z,10.40
2018-08-16T18:25:05.146Z,9.13
2018-08-16T18:27:33.318Z,9.90
2018-08-16T18:30:01.527Z,9.90
2018-08-16T18:32:29.723Z,10.30
2018-08-16T18:34:57.919Z,9.97
2018-08-16T18:37:26.114Z,9.47
2018-08-16T18:39:54.350Z,9.67
2018-08-16T18:42:22.651Z,9.20
2018-08-16T18:44:50.990Z,10.40
2018-08-16T18:47:19.130Z,10.03
2018-08-16T18:49:47.322Z,9.30
2018-08-16T18:52:15.502Z,9.00
2018-08-16T18:54:43.682Z,10.87
2018-08-16T18:57:11.873Z,11.10
2018-08-16T18:59:40.095Z,10.83
2018-08-16T19:02:20.660Z,10.20
2018-08-16T19:04:52.882Z,9.63
2018-08-16T19:07:21.083Z,9.70
2018-08-16T19:09:49.401Z,10.27
2018-08-16T19:12:17.862Z,10.67
2018-08-16T19:14:46.038Z,10.33
2018-08-16T19:17:14.223Z,10.50
2018-08-16T19:19:42.446Z,10.33
2018-08-16T19:22:10.679Z,9.73
2018-08-16T19:24:38.967Z,10.53
2018-08-16T19:27:07.328Z,11.43
2018-08-16T19:29:35.608Z,12.20
2018-08-16T19:32:03.814Z,10.90
2018-08-16T19:34:32.022Z,12.00
2018-08-16T19:37:00.341Z,11.90
2018-08-16T19:39:28.509Z,12.40
2018-08-16T19:41:56.745Z,12.53
2018-08-16T19:44:25.243Z,11.40
2018-08-16T19:46:53.413Z,12.83
2018-08-16T19:49:21.641Z,12.70
2018-08-16T19:51:49.919Z,12.63
2018-08-16T19:54:18.097Z,12.10
2018-08-16T19:56:46.287Z,11.73
2018-08-16T20:01:57.297Z,11.67
2018-08-16T20:04:26.007Z,12.83
2018-08-16T20:06:54.274Z,13.27
2018-08-16T20:09:22.435Z,11.90
2018-08-16T20:11:50.620Z,12.30
2018-08-16T20:14:18.821Z,12.93
2018-08-16T20:16:55.361Z,13.60
2018-08-16T20:19:23.806Z,12.90
2018-08-16T20:21:51.957Z,12.10
2018-08-16T20:24:20.184Z,13.07
2018-08-16T20:26:48.362Z,14.10
2018-08-16T20:29:16.634Z,14.33
2018-08-16T20:31:44.810Z,13.90
2018-08-16T20:34:13.112Z,13.47
2018-08-16T20:36:41.309Z,12.80
2018-08-16T20:39:09.718Z,14.43
2018-08-16T20:41:37.888Z,13.50
2018-08-16T20:44:06.131Z,12.57
2018-08-16T20:46:34.401Z,11.73
2018-08-16T20:49:02.581Z,14.20
2018-08-16T20:51:30.761Z,12.67
2018-08-16T20:53:58.930Z,14.13
2018-08-16T20:56:27.118Z,14.43
2018-08-16T20:58:55.285Z,14.63
2018-08-16T21:01:23.465Z,13.40
2018-08-16T21:03:51.634Z,13.30
2018-08-16T21:06:19.834Z,13.67
2018-08-16T21:08:48.010Z,14.43
2018-08-16T21:11:16.194Z,13.60
2018-08-16T21:13:47.602Z,13.63
2018-08-16T21:16:20.676Z,14.00
2018-08-16T21:19:43.733Z,14.60
2018-08-16T21:22:11.914Z,14.03
2018-08-16T21:24:40.093Z,13.30
2018-08-16T21:27:08.281Z,13.50
2018-08-16T21:29:36.449Z,13.60
2018-08-16T21:32:04.646Z,13.67
2018-08-16T21:34:32.854Z,13.73
2018-08-16T21:37:00.986Z,13.17
2018-08-16T21:39:29.158Z,13.10
2018-08-16T21:41:57.337Z,13.67
2018-08-16T21:44:25.530Z,13.57
2018-08-16T21:46:53.821Z,13.70
2018-08-16T21:49:22.011Z,14.03
2018-08-16T21:51:50.198Z,13.80
2018-08-16T21:54:18.386Z,13.40
2018-08-16T21:56:46.570Z,13.47
2018-08-16T21:59:14.741Z,13.40
2018-08-16T22:01:42.917Z,13.37
2018-08-16T22:04:11.105Z,13.30
2018-08-16T22:06:50.642Z,14.00
2018-08-16T22:09:19.853Z,13.80
2018-08-16T22:11:48.034Z,13.63
2018-08-16T22:14:16.225Z,14.50
2018-08-16T22:16:44.430Z,13.33
2018-08-16T22:19:12.593Z,14.67
2018-08-16T22:21:40.791Z,14.40
2018-08-16T22:24:08.966Z,13.70
2018-08-16T22:26:39.858Z,13.80
2018-08-16T22:29:08.030Z,14.27
2018-08-16T22:31:36.231Z,13.80
2018-08-16T22:34:04.633Z,14.17
2018-08-16T22:36:32.795Z,13.50
2018-08-16T22:39:00.949Z,13.90
2018-08-16T22:41:29.170Z,13.70
2018-08-16T22:43:57.338Z,14.00
2018-08-16T22:46:25.522Z,14.27
2018-08-16T22:48:53.715Z,13.83
2018-08-16T22:51:21.898Z,12.87
2018-08-16T22:53:50.074Z,13.10
2018-08-16T22:56:18.250Z,13.37
2018-08-16T22:58:46.414Z,15.17
2018-08-16T23:01:14.610Z,14.03
2018-08-16T23:03:42.789Z,14.47
2018-08-16T23:06:10.961Z,14.70
2018-08-16T23:08:39.148Z,13.53
2018-08-16T23:11:07.329Z,13.83
2018-08-16T23:13:35.514Z,13.70
2018-08-16T23:16:03.687Z,14.40
2018-08-16T23:18:32.032Z,13.97
2018-08-16T23:21:00.191Z,14.00
2018-08-16T23:23:28.365Z,13.80
2018-08-16T23:25:56.669Z,14.80
2018-08-16T23:28:24.845Z,14.90
2018-08-16T23:30:53.017Z,15.37
2018-08-16T23:33:21.206Z,15.73
2018-08-16T23:35:49.381Z,16.20
2018-08-16T23:38:17.562Z,16.93
2018-08-16T23:40:45.725Z,15.77
2018-08-16T23:43:13.929Z,15.10
2018-08-16T23:45:42.101Z,15.40
2018-08-16T23:48:21.906Z,15.63
2018-08-16T23:50:50.087Z,15.47
2018-08-16T23:53:18.266Z,16.60
2018-08-16T23:55:46.442Z,15.93
2018-08-16T23:58:14.626Z,15.80
